Time;durP1;ratioP1;P1;durP2;ratioP2;P2;SDS_P1;SDS_P2;PMS_P1;PMS_P2;Temp;Humidity;BMP_temperature;BMP_pressure;BME280_temperature;BME280_humidity;BME280_pressure;Samples;Min_cycle;Max_cycle;Signal;HPM_P1;HPM_P2
2022/12/10 00:00:19;;;;;;;69.10;34.50;;;1.50;99.90;;;;;;5088804;28;20044;-63
2022/12/10 00:02:44;;;;;;;62.05;34.30;;;1.50;99.90;;;;;;5088553;28;20502;-61
2022/12/10 00:05:10;;;;;;;63.83;32.97;;;1.60;99.90;;;;;;5088527;28;20031;-61
2022/12/10 00:07:36;;;;;;;60.10;33.03;;;1.60;99.90;;;;;;5086207;28;20056;-61
2022/12/10 00:10:02;;;;;;;58.55;32.35;;;1.50;99.90;;;;;;5088679;28;20123;-62
2022/12/10 00:12:27;;;;;;;59.55;32.55;;;1.50;99.90;;;;;;5087351;28;20368;-60
2022/12/10 00:14:53;;;;;;;62.50;31.90;;;1.50;99.90;;;;;;5088234;28;20039;-60
2022/12/10 00:17:18;;;;;;;59.33;32.83;;;1.50;99.90;;;;;;5088134;28;20020;-58
2022/12/10 00:19:44;;;;;;;54.75;30.52;;;1.60;99.90;;;;;;5085439;28;20031;-59
2022/12/10 00:22:10;;;;;;;61.17;31.65;;;1.60;99.90;;;;;;5080132;28;20085;-60
2022/12/10 00:24:35;;;;;;;60.40;30.67;;;1.60;99.90;;;;;;5078909;28;20087;-60
2022/12/10 00:27:01;;;;;;;56.63;31.83;;;1.60;99.90;;;;;;5078831;28;20033;-59
2022/12/10 00:29:27;;;;;;;51.05;29.73;;;1.60;99.90;;;;;;5076584;28;20024;-60
2022/12/10 00:31:53;;;;;;;50.83;28.08;;;1.60;99.90;;;;;;5075379;28;20110;-61
2022/12/10 00:34:19;;;;;;;51.47;28.98;;;1.60;99.90;;;;;;5074755;28;20222;-61
2022/12/10 00:36:48;;;;;;;51.22;28.08;;;1.60;99.90;;;;;;5089536;28;20388;-64
2022/12/10 00:39:17;;;;;;;51.05;27.88;;;1.60;99.90;;;;;;5089566;28;20046;-62
2022/12/10 00:41:43;;;;;;;50.20;27.90;;;1.60;99.90;;;;;;5090138;28;20106;-63
2022/12/10 00:44:09;;;;;;;45.70;26.25;;;1.70;99.90;;;;;;5090493;28;20054;-62
2022/12/10 00:46:35;;;;;;;47.58;25.40;;;1.60;99.90;;;;;;5090351;28;20032;-59
2022/12/10 00:49:02;;;;;;;45.43;26.30;;;1.60;99.90;;;;;;5090715;28;20431;-58
2022/12/10 00:51:28;;;;;;;45.88;27.33;;;1.60;99.90;;;;;;5089344;28;20328;-64
2022/12/10 00:53:56;;;;;;;47.20;25.92;;;1.60;99.90;;;;;;5090677;28;20043;-63
2022/12/10 00:56:25;;;;;;;45.33;26.30;;;1.60;99.90;;;;;;5090524;28;20032;-61
2022/12/10 00:58:51;;;;;;;43.45;25.55;;;1.60;99.90;;;;;;5090155;28;20043;-61
2022/12/10 01:01:27;;;;;;;47.40;26.70;;;1.60;99.90;;;;;;5090471;28;20093;-62
2022/12/10 01:03:56;;;;;;;46.03;26.42;;;1.60;99.90;;;;;;5090181;28;20793;-62
2022/12/10 01:06:21;;;;;;;44.50;27.38;;;1.60;99.90;;;;;;5090394;28;20032;-61
2022/12/10 01:08:47;;;;;;;41.35;25.17;;;1.60;99.90;;;;;;5090075;28;20032;-59
2022/12/10 01:11:15;;;;;;;46.63;25.63;;;1.60;99.90;;;;;;5090025;28;20506;-61
2022/12/10 01:13:41;;;;;;;;;;;1.60;99.90;;;;;;5090619;28;20385;-60
2022/12/10 01:16:12;;;;;;;41.50;24.23;;;1.60;99.90;;;;;;5090250;28;20439;-58
2022/12/10 01:18:38;;;;;;;41.08;25.08;;;1.60;99.90;;;;;;5090097;28;20044;-60
2022/12/10 01:21:06;;;;;;;44.33;24.83;;;1.60;99.90;;;;;;5090370;28;20070;-59
2022/12/10 01:23:35;;;;;;;44.03;25.65;;;1.60;99.90;;;;;;5089967;28;20052;-59
2022/12/10 01:26:03;;;;;;;45.58;26.70;;;1.60;99.90;;;;;;5089947;28;20085;-62
2022/12/10 01:28:31;;;;;;;46.30;25.80;;;1.60;99.90;;;;;;5089732;28;20081;-59
2022/12/10 01:31:00;;;;;;;49.05;27.95;;;1.60;99.90;;;;;;5089912;28;20468;-58
2022/12/10 01:33:26;;;;;;;51.33;29.23;;;1.60;99.90;;;;;;5089951;28;20601;-59
2022/12/10 01:35:51;;;;;;;50.65;29.30;;;1.60;99.90;;;;;;5079424;28;20029;-61
2022/12/10 01:38:17;;;;;;;53.58;32.50;;;1.60;99.90;;;;;;5069628;28;20539;-61
2022/12/10 01:40:43;;;;;;;58.38;31.98;;;1.60;99.90;;;;;;5069615;28;20028;-63
2022/12/10 01:43:14;;;;;;;54.13;31.13;;;1.60;99.90;;;;;;5069730;28;20035;-61
2022/12/10 01:45:39;;;;;;;57.85;31.73;;;1.60;99.90;;;;;;5069425;28;20043;-61
2022/12/10 01:48:05;;;;;;;56.72;31.02;;;1.50;99.90;;;;;;5051779;28;20480;-58
2022/12/10 01:50:31;;;;;;;53.53;30.88;;;1.60;99.90;;;;;;5069585;28;20033;-59
2022/12/10 01:52:57;;;;;;;54.83;32.15;;;1.60;99.90;;;;;;5069626;28;20063;-60
2022/12/10 01:55:49;;;;;;;52.53;32.43;;;1.60;99.90;;;;;;5069442;28;20027;-60
2022/12/10 01:58:18;;;;;;;50.50;30.17;;;1.60;99.90;;;;;;5069452;28;20259;-60
2022/12/10 02:01:21;;;;;;;59.83;33.47;;;1.60;99.90;;;;;;5069561;28;20060;-59
2022/12/10 02:04:14;;;;;;;54.17;30.92;;;1.60;99.90;;;;;;4977434;28;20073;-61
2022/12/10 02:06:46;;;;;;;53.80;32.17;;;1.60;99.90;;;;;;5080051;28;20043;-60
2022/12/10 02:09:18;;;;;;;53.30;31.63;;;1.60;99.90;;;;;;5093645;28;20031;-60
2022/12/10 02:12:14;;;;;;;56.25;32.78;;;1.70;99.90;;;;;;5086847;28;20060;-61
2022/12/10 02:15:13;;;;;;;55.47;33.05;;;1.60;99.90;;;;;;5075486;28;20181;-61
2022/12/10 02:17:45;;;;;;;54.35;31.50;;;1.60;99.90;;;;;;5093384;28;20038;-60
2022/12/10 02:20:14;;;;;;;56.92;32.30;;;1.70;99.90;;;;;;5093471;28;20505;-61
2022/12/10 02:22:54;;;;;;;53.83;30.50;;;1.70;99.90;;;;;;5089529;28;20021;-59
2022/12/10 02:25:27;;;;;;;50.15;30.02;;;1.70;99.90;;;;;;5073386;28;20123;-63
2022/12/10 02:28:11;;;;;;;48.60;28.95;;;1.70;99.90;;;;;;5072649;28;20017;-60
2022/12/10 02:30:41;;;;;;;52.17;29.52;;;1.80;99.90;;;;;;5072685;28;20158;-59
2022/12/10 02:33:08;;;;;;;43.38;27.52;;;1.80;99.90;;;;;;5072910;28;20032;-59
2022/12/10 02:35:38;;;;;;;49.58;28.15;;;1.80;99.90;;;;;;5072925;28;20037;-59
2022/12/10 02:38:16;;;;;;;53.97;30.42;;;1.80;99.90;;;;;;5072879;28;20128;-59
2022/12/10 02:40:47;;;;;;;49.75;27.35;;;1.70;99.90;;;;;;5055089;28;20021;-61
2022/12/10 02:43:13;;;;;;;45.90;27.27;;;1.80;99.90;;;;;;5072822;28;20120;-58
2022/12/10 02:45:40;;;;;;;48.38;27.45;;;1.70;99.90;;;;;;5072911;28;20073;-60
2022/12/10 02:48:06;;;;;;;47.92;26.35;;;1.70;99.90;;;;;;5072841;28;20484;-61
2022/12/10 02:50:32;;;;;;;50.25;27.30;;;1.70;99.90;;;;;;5072660;28;20075;-61
2022/12/10 02:52:57;;;;;;;46.40;28.30;;;1.70;99.90;;;;;;5072737;28;20013;-61
2022/12/10 02:55:23;;;;;;;52.60;30.25;;;1.70;99.90;;;;;;5072612;28;20099;-61
2022/12/10 02:58:13;;;;;;;50.05;29.35;;;1.60;99.90;;;;;;5072669;28;20721;-61
2022/12/10 03:01:05;;;;;;;47.28;27.13;;;1.60;99.90;;;;;;5082535;28;20042;-61
2022/12/10 03:03:40;;;;;;;45.78;26.60;;;1.60;99.90;;;;;;5078305;28;20048;-60
2022/12/10 03:06:21;;;;;;;43.40;27.30;;;1.70;99.90;;;;;;5071988;28;20030;-61
2022/12/10 03:09:12;;;;;;;43.17;26.85;;;1.70;99.90;;;;;;5072460;28;20490;-59
2022/12/10 03:11:41;;;;;;;40.17;24.80;;;1.70;99.90;;;;;;5067086;28;20127;-60
2022/12/10 03:14:14;;;;;;;41.33;25.58;;;1.70;99.90;;;;;;5071621;28;20082;-59
2022/12/10 03:16:44;;;;;;;42.95;25.33;;;1.60;99.90;;;;;;5071827;28;20051;-60
2022/12/10 03:19:19;;;;;;;45.90;26.30;;;1.60;99.90;;;;;;5072321;28;20035;-61
2022/12/10 03:21:46;;;;;;;42.58;25.85;;;1.70;99.90;;;;;;5054093;28;20025;-61
2022/12/10 03:24:15;;;;;;;42.45;26.40;;;1.70;99.90;;;;;;5072095;28;20051;-62
2022/12/10 03:26:43;;;;;;;41.70;23.85;;;1.70;99.90;;;;;;5072197;28;20027;-59
2022/12/10 03:29:15;;;;;;;42.85;25.13;;;1.70;99.90;;;;;;5071914;28;20029;-61
2022/12/10 03:31:41;;;;;;;37.83;23.23;;;1.70;99.90;;;;;;5072072;28;20024;-59
2022/12/10 03:34:09;;;;;;;36.37;23.93;;;1.70;99.90;;;;;;5072124;28;20160;-61
2022/12/10 03:36:37;;;;;;;37.47;23.42;;;1.70;99.90;;;;;;5071899;28;20099;-59
2022/12/10 03:39:04;;;;;;;37.33;22.23;;;1.70;99.90;;;;;;5053770;28;20427;-60
2022/12/10 03:41:30;;;;;;;;;;;1.80;99.90;;;;;;5072364;28;20024;-62
2022/12/10 03:43:58;;;;;;;39.53;24.58;;;1.80;99.90;;;;;;5071785;28;19943;-60
2022/12/10 03:46:25;;;;;;;38.97;23.20;;;1.80;99.90;;;;;;5071801;28;20382;-59
2022/12/10 03:48:51;;;;;;;40.17;24.55;;;1.70;99.90;;;;;;5071549;28;20384;-60
2022/12/10 03:51:17;;;;;;;40.30;22.92;;;1.70;99.90;;;;;;5071474;28;20056;-59
2022/12/10 03:53:43;;;;;;;39.40;23.92;;;1.70;99.90;;;;;;5071503;28;20063;-62
2022/12/10 03:56:09;;;;;;;41.50;24.20;;;1.60;99.90;;;;;;5071722;28;20520;-60
2022/12/10 03:58:35;;;;;;;39.50;23.77;;;1.60;99.90;;;;;;5071328;28;20029;-61
2022/12/10 04:01:02;;;;;;;42.35;24.05;;;1.60;99.90;;;;;;5088860;28;20036;-58
2022/12/10 04:03:27;;;;;;;37.45;22.92;;;1.60;99.90;;;;;;5091366;28;20062;-61
2022/12/10 04:05:53;;;;;;;41.95;24.52;;;1.60;99.90;;;;;;5091587;28;20024;-60
2022/12/10 04:08:19;;;;;;;38.38;23.95;;;1.60;99.90;;;;;;5091544;28;20035;-58
2022/12/10 04:10:44;;;;;;;43.10;25.50;;;1.60;99.90;;;;;;5091010;28;20341;-58
2022/12/10 04:18:40;;;;;;;44.45;26.58;;;1.50;99.90;;;;;;5091586;28;20123;-61
2022/12/10 04:26:52;;;;;;;44.47;27.38;;;1.60;99.90;;;;;;5091231;28;20116;-60
2022/12/10 04:29:28;;;;;;;44.50;25.75;;;1.50;99.90;;;;;;5091154;28;20028;-60
2022/12/10 04:31:56;;;;;;;43.58;26.88;;;1.50;99.90;;;;;;5091054;28;20032;-61
2022/12/10 04:34:22;;;;;;;44.00;27.48;;;1.60;99.90;;;;;;5091332;28;20024;-58
2022/12/10 04:36:48;;;;;;;43.95;24.40;;;1.60;99.90;;;;;;5090840;28;20043;-61
2022/12/10 04:39:14;;;;;;;43.47;26.10;;;1.60;99.90;;;;;;5091139;28;20164;-61
2022/12/10 04:41:41;;;;;;;40.95;25.27;;;1.60;99.90;;;;;;5072672;28;20594;-61
2022/12/10 04:44:08;;;;;;;40.28;25.25;;;1.60;99.90;;;;;;5090763;28;20036;-61
2022/12/10 04:46:34;;;;;;;42.00;24.67;;;1.60;99.90;;;;;;5090976;28;20019;-60
2022/12/10 04:48:59;;;;;;;42.85;25.63;;;1.60;99.90;;;;;;5090669;28;20421;-61
2022/12/10 04:51:25;;;;;;;42.67;25.05;;;1.70;99.90;;;;;;5090877;28;20024;-59
2022/12/10 04:53:51;;;;;;;41.03;24.65;;;1.60;99.90;;;;;;5090669;28;20506;-58
2022/12/10 04:56:16;;;;;;;41.65;24.83;;;1.60;99.90;;;;;;5090596;28;20031;-59
2022/12/10 04:58:42;;;;;;;38.50;23.63;;;1.60;99.90;;;;;;5090548;28;20024;-60
2022/12/10 05:01:10;;;;;;;39.67;23.92;;;1.60;99.90;;;;;;5090420;28;20020;-60
2022/12/10 05:03:36;;;;;;;46.25;26.63;;;1.60;99.90;;;;;;5090132;28;20089;-59
2022/12/10 05:06:07;;;;;;;40.33;25.42;;;1.60;99.90;;;;;;5090313;28;20024;-59
2022/12/10 05:08:34;;;;;;;46.90;26.15;;;1.60;99.90;;;;;;5072146;28;20105;-60
2022/12/10 05:11:04;;;;;;;45.80;26.27;;;1.60;99.90;;;;;;5090224;28;20024;-60
2022/12/10 05:13:30;;;;;;;42.75;25.05;;;1.60;99.90;;;;;;5090173;28;20374;-58
2022/12/10 05:15:56;;;;;;;44.53;26.08;;;1.70;99.90;;;;;;5090280;28;20471;-61
2022/12/10 05:18:22;;;;;;;44.03;24.70;;;1.70;99.90;;;;;;5090276;28;20031;-60
2022/12/10 05:20:47;;;;;;;41.53;25.45;;;1.70;99.90;;;;;;5071897;28;20066;-60
2022/12/10 05:23:28;;;;;;;41.47;24.52;;;1.70;99.90;;;;;;5090092;28;20033;-60
2022/12/10 05:26:08;;;;;;;42.53;24.90;;;1.70;99.90;;;;;;5090036;28;20406;-61
2022/12/10 05:28:45;;;;;;;45.97;27.95;;;1.80;99.90;;;;;;5090134;28;20028;-63
2022/12/10 05:31:19;;;;;;;44.40;26.83;;;1.80;99.90;;;;;;5090116;28;20026;-59
2022/12/10 05:33:44;;;;;;;43.80;26.58;;;1.80;99.90;;;;;;5090507;28;20102;-58
2022/12/10 05:36:13;;;;;;;47.55;27.52;;;1.80;99.90;;;;;;5089864;28;20521;-60
2022/12/10 05:38:39;;;;;;;50.75;28.98;;;1.80;99.90;;;;;;5089192;28;20447;-58
2022/12/10 05:41:16;;;;;;;52.35;29.40;;;1.80;99.90;;;;;;5089892;28;20024;-58
2022/12/10 05:43:43;;;;;;;49.92;29.58;;;1.80;99.90;;;;;;5090044;28;20043;-59
2022/12/10 05:46:29;;;;;;;57.47;32.28;;;1.70;99.90;;;;;;5071788;28;20031;-59
2022/12/10 05:48:56;;;;;;;56.13;32.83;;;1.70;99.90;;;;;;5090063;28;20055;-61
2022/12/10 05:51:25;;;;;;;61.50;33.63;;;1.70;99.90;;;;;;5089609;28;20028;-58
2022/12/10 05:53:52;;;;;;;65.72;33.22;;;1.70;99.90;;;;;;5089220;28;20748;-58
2022/12/10 05:56:20;;;;;;;60.28;34.13;;;1.70;99.90;;;;;;5089784;28;20490;-61
2022/12/10 05:58:48;;;;;;;60.92;33.13;;;1.70;99.90;;;;;;5089563;28;20036;-59
2022/12/10 06:01:17;;;;;;;67.95;35.47;;;1.70;99.90;;;;;;5071632;28;20142;-60
2022/12/10 06:03:43;;;;;;;61.22;32.85;;;1.60;99.90;;;;;;5069679;28;20037;-60
2022/12/10 06:06:08;;;;;;;61.58;33.65;;;1.70;99.90;;;;;;5069614;28;20380;-61
2022/12/10 06:08:35;;;;;;;60.58;33.83;;;1.60;99.90;;;;;;5069160;28;20041;-60
2022/12/10 06:11:07;;;;;;;67.25;34.42;;;1.60;99.90;;;;;;5069699;28;20032;-58
2022/12/10 06:13:33;;;;;;;61.70;32.75;;;1.60;99.90;;;;;;5069458;28;20044;-58
2022/12/10 06:15:59;;;;;;;62.53;34.25;;;1.60;99.90;;;;;;5069395;28;20095;-59
2022/12/10 06:18:24;;;;;;;65.72;35.40;;;1.60;99.90;;;;;;5069347;28;20433;-59
2022/12/10 06:20:50;;;;;;;62.83;33.95;;;1.60;99.90;;;;;;5069426;28;20032;-60
2022/12/10 06:23:16;;;;;;;64.72;34.58;;;1.60;99.90;;;;;;5069043;28;20055;-60
2022/12/10 06:25:42;;;;;;;67.57;34.47;;;1.60;99.90;;;;;;5051009;28;20082;-59
2022/12/10 06:28:08;;;;;;;70.38;35.40;;;1.60;99.90;;;;;;5069295;28;20051;-59
2022/12/10 06:30:34;;;;;;;64.93;34.33;;;1.60;99.90;;;;;;5069275;28;20040;-60
2022/12/10 06:33:00;;;;;;;70.13;36.97;;;1.60;99.90;;;;;;5081940;28;20028;-59
2022/12/10 06:35:26;;;;;;;71.22;36.60;;;1.70;99.90;;;;;;5089377;28;20032;-58
2022/12/10 06:37:52;;;;;;;69.05;37.00;;;1.70;99.90;;;;;;5089209;28;20155;-60
2022/12/10 06:40:18;;;;;;;67.45;36.83;;;1.70;99.90;;;;;;5089323;28;20100;-61
2022/12/10 06:42:43;;;;;;;69.85;36.97;;;1.60;99.90;;;;;;5088970;28;20032;-60
2022/12/10 06:45:10;;;;;;;69.38;37.13;;;1.70;99.90;;;;;;5089251;28;20024;-62
2022/12/10 06:47:35;;;;;;;60.72;35.13;;;1.70;99.90;;;;;;5070942;28;20028;-60
2022/12/10 06:50:02;;;;;;;68.90;35.80;;;1.70;99.90;;;;;;5056740;28;20118;-61
2022/12/10 06:52:27;;;;;;;62.97;36.65;;;1.70;99.90;;;;;;5093292;28;20062;-60
2022/12/10 06:54:54;;;;;;;68.78;35.83;;;1.70;99.90;;;;;;5057663;28;20024;-60
2022/12/10 06:57:21;;;;;;;66.32;36.25;;;1.70;99.90;;;;;;5092500;28;20033;-61
2022/12/10 06:59:47;;;;;;;64.18;36.30;;;1.80;99.90;;;;;;5089713;28;20039;-62
2022/12/10 07:02:13;;;;;;;72.22;37.80;;;1.80;99.90;;;;;;5072523;28;20723;-61
2022/12/10 07:04:39;;;;;;;62.63;35.22;;;1.80;99.90;;;;;;5072403;28;20055;-60
2022/12/10 07:07:06;;;;;;;67.18;36.13;;;1.70;99.90;;;;;;5072359;28;20492;-62
2022/12/10 07:09:32;;;;;;;;;;;1.70;99.90;;;;;;5072775;28;20037;-60
2022/12/10 07:11:57;;;;;;;56.17;32.05;;;1.70;99.90;;;;;;5072304;28;19916;-61
2022/12/10 07:14:23;;;;;;;61.80;35.63;;;1.80;99.90;;;;;;5072309;28;20064;-60
2022/12/10 07:16:49;;;;;;;63.60;34.38;;;1.80;99.90;;;;;;5072391;28;20028;-61
2022/12/10 07:19:14;;;;;;;67.13;35.55;;;1.80;99.90;;;;;;5072344;28;20024;-59
2022/12/10 07:21:41;;;;;;;69.28;36.75;;;1.80;99.90;;;;;;5072262;28;20468;-59
2022/12/10 07:24:10;;;;;;;65.47;34.92;;;1.80;99.90;;;;;;5072023;28;20044;-60
2022/12/10 07:26:39;;;;;;;62.00;34.95;;;1.80;99.90;;;;;;5072015;28;20036;-61
2022/12/10 07:29:06;;;;;;;60.45;33.90;;;1.90;99.90;;;;;;5072178;28;20029;-60
2022/12/10 07:31:33;;;;;;;;;;;1.90;99.90;;;;;;5072486;28;20017;-60
2022/12/10 07:33:58;;;;;;;61.90;34.17;;;1.90;99.90;;;;;;5071923;28;19908;-62
2022/12/10 07:36:24;;;;;;;61.92;34.58;;;1.90;99.90;;;;;;5072209;28;20039;-59
2022/12/10 07:38:54;;;;;;;65.32;35.33;;;1.90;99.90;;;;;;5053541;28;20016;-59
2022/12/10 07:41:22;;;;;;;64.22;33.78;;;1.90;99.90;;;;;;5071674;28;20025;-58
2022/12/10 07:43:48;;;;;;;64.93;34.58;;;1.90;99.90;;;;;;5071867;28;20040;-60
2022/12/10 07:46:28;;;;;;;61.97;33.75;;;1.90;99.90;;;;;;5053635;28;20028;-60
2022/12/10 07:48:54;;;;;;;63.60;35.20;;;1.90;99.90;;;;;;5063745;28;20034;-60
2022/12/10 07:51:21;;;;;;;69.57;34.55;;;1.90;99.90;;;;;;5071980;28;20026;-61
2022/12/10 07:53:47;;;;;;;68.43;34.22;;;1.90;99.90;;;;;;5081450;28;20384;-60
2022/12/10 07:56:14;;;;;;;67.03;35.97;;;1.80;99.90;;;;;;5078679;28;20499;-60
2022/12/10 07:58:44;;;;;;;69.95;36.15;;;1.80;99.90;;;;;;5077774;28;20052;-61
2022/12/10 08:01:13;;;;;;;68.60;37.17;;;1.80;99.90;;;;;;5075624;28;20021;-60
2022/12/10 08:03:38;;;;;;;68.20;34.60;;;1.90;99.90;;;;;;5075502;28;20045;-63
2022/12/10 08:06:10;;;;;;;63.97;34.85;;;1.90;99.90;;;;;;5077801;28;20036;-62
2022/12/10 08:08:37;;;;;;;63.15;34.10;;;1.90;99.90;;;;;;5074872;28;20057;-60
2022/12/10 08:11:06;;;;;;;66.75;36.20;;;1.90;99.90;;;;;;5070145;28;20024;-59
2022/12/10 08:13:32;;;;;;;76.55;40.78;;;2.00;99.90;;;;;;5077429;28;20040;-60
2022/12/10 08:16:06;;;;;;;69.35;40.97;;;1.90;99.90;;;;;;5077493;28;20032;-59
2022/12/10 08:18:33;;;;;;;91.35;49.13;;;1.90;99.90;;;;;;5071016;28;20028;-59
2022/12/10 08:21:12;;;;;;;83.18;44.90;;;1.90;99.90;;;;;;5070969;28;20035;-59
2022/12/10 08:23:38;;;;;;;81.97;40.58;;;2.00;99.90;;;;;;5052995;28;20036;-60
2022/12/10 08:26:09;;;;;;;77.50;40.20;;;1.90;99.90;;;;;;5070890;28;20036;-61
2022/12/10 08:28:35;;;;;;;77.10;40.17;;;1.90;99.90;;;;;;5070873;28;20041;-60
2022/12/10 08:31:01;;;;;;;67.88;36.88;;;1.90;99.90;;;;;;5070999;28;20036;-60
2022/12/10 08:33:27;;;;;;;70.90;36.13;;;2.00;99.90;;;;;;5070724;28;20033;-59
2022/12/10 08:35:58;;;;;;;67.70;35.08;;;2.00;99.90;;;;;;5068416;28;20259;-59
2022/12/10 08:38:24;;;;;;;65.28;34.53;;;2.00;99.90;;;;;;5066566;28;20100;-61
2022/12/10 08:40:49;;;;;;;69.82;34.80;;;2.00;99.90;;;;;;5070058;28;20137;-58
2022/12/10 08:43:15;;;;;;;68.10;34.58;;;1.90;99.90;;;;;;5069636;28;20033;-57
2022/12/10 08:45:40;;;;;;;74.55;35.15;;;1.90;99.90;;;;;;5070459;28;20071;-60
2022/12/10 08:48:06;;;;;;;65.45;34.83;;;1.80;99.90;;;;;;5069334;28;20525;-60
2022/12/10 08:50:32;;;;;;;73.82;33.50;;;1.90;99.90;;;;;;5067649;28;20056;-58
2022/12/10 08:52:57;;;;;;;77.13;37.10;;;1.80;99.90;;;;;;5067549;28;20107;-59
2022/12/10 08:55:23;;;;;;;80.68;35.72;;;1.90;99.90;;;;;;5067775;28;20027;-60
2022/12/10 08:57:48;;;;;;;73.15;34.80;;;1.90;99.90;;;;;;5067919;28;20514;-59
2022/12/10 09:00:14;;;;;;;76.90;35.92;;;1.90;99.90;;;;;;5067910;28;20024;-57
2022/12/10 09:02:40;;;;;;;75.35;35.22;;;1.90;99.90;;;;;;5068593;28;20130;-59
2022/12/10 09:05:07;;;;;;;78.47;36.65;;;1.90;99.90;;;;;;5069834;28;20781;-58
2022/12/10 09:07:33;;;;;;;89.20;38.85;;;1.90;99.90;;;;;;5069588;28;20056;-58
2022/12/10 09:09:58;;;;;;;82.43;36.42;;;1.90;99.90;;;;;;5079717;28;20066;-59
2022/12/10 09:12:24;;;;;;;80.20;36.45;;;1.90;99.90;;;;;;5089229;28;20090;-59
2022/12/10 09:14:50;;;;;;;84.93;38.30;;;1.90;99.90;;;;;;5089946;28;20542;-58
2022/12/10 09:17:16;;;;;;;93.93;40.03;;;1.90;99.90;;;;;;5090239;28;20054;-58
2022/12/10 09:19:41;;;;;;;90.53;39.38;;;1.90;99.90;;;;;;5089884;28;20031;-58
2022/12/10 09:22:08;;;;;;;88.63;38.70;;;1.90;99.90;;;;;;5071920;28;20027;-60
2022/12/10 09:24:34;;;;;;;82.03;35.67;;;1.90;99.90;;;;;;5089801;28;20043;-57
2022/12/10 09:27:00;;;;;;;78.40;36.30;;;1.90;99.90;;;;;;5089960;28;20028;-60
2022/12/10 09:29:26;;;;;;;81.35;38.08;;;1.90;99.90;;;;;;5090240;28;20066;-58
2022/12/10 09:31:52;;;;;;;80.15;35.25;;;2.00;99.90;;;;;;5089872;28;20427;-59
2022/12/10 09:34:18;;;;;;;85.75;37.20;;;2.00;99.90;;;;;;5089742;28;20032;-58
2022/12/10 09:36:45;;;;;;;85.10;38.00;;;2.00;99.90;;;;;;5054611;28;20028;-60
2022/12/10 09:39:11;;;;;;;91.95;39.97;;;2.00;99.90;;;;;;5049551;28;20456;-60
2022/12/10 09:41:45;;;;;;;88.35;38.65;;;1.90;99.90;;;;;;5076318;28;20029;-60
2022/12/10 09:44:19;;;;;;;85.65;36.40;;;1.90;99.90;;;;;;5059093;28;20063;-59
2022/12/10 09:46:57;;;;;;;84.72;39.40;;;1.90;99.90;;;;;;5086328;28;20027;-58
2022/12/10 09:49:41;;;;;;;88.35;37.13;;;1.90;99.90;;;;;;5089884;28;20091;-58
2022/12/10 09:52:12;;;;;;;70.65;35.33;;;2.00;99.90;;;;;;5089848;28;20106;-59
2022/12/10 09:54:52;;;;;;;77.30;36.10;;;1.90;99.90;;;;;;5089544;28;20024;-58
2022/12/10 09:57:35;;;;;;;81.30;35.17;;;1.90;99.90;;;;;;5089487;28;20042;-56
2022/12/10 10:00:34;;;;;;;84.93;37.90;;;1.90;99.90;;;;;;5089753;28;20071;-59
2022/12/10 10:03:00;;;;;;;79.75;37.42;;;1.90;99.90;;;;;;5089535;28;20024;-59
2022/12/10 10:05:31;;;;;;;84.10;37.33;;;1.90;99.90;;;;;;5089310;28;20068;-57
2022/12/10 10:08:01;;;;;;;81.72;38.47;;;1.80;99.90;;;;;;5082685;28;20267;-60
2022/12/10 10:10:26;;;;;;;76.28;35.88;;;1.90;99.90;;;;;;5078086;28;20020;-60
2022/12/10 10:12:55;;;;;;;77.88;35.00;;;1.90;99.90;;;;;;5077126;28;20054;-59
2022/12/10 10:15:30;;;;;;;74.45;35.05;;;1.90;99.90;;;;;;5074725;28;20021;-58
2022/12/10 10:18:13;;;;;;;70.13;33.95;;;1.90;99.90;;;;;;5077025;28;20031;-58
2022/12/10 10:20:39;;;;;;;67.07;33.83;;;1.90;99.90;;;;;;5059114;28;20135;-57
2022/12/10 10:23:05;;;;;;;67.15;31.95;;;2.00;99.90;;;;;;5078314;28;20119;-56
2022/12/10 10:25:31;;;;;;;66.40;31.80;;;2.00;99.90;;;;;;5082194;28;20091;-58
2022/12/10 10:27:57;;;;;;;66.68;29.98;;;2.00;99.90;;;;;;5082659;28;20282;-57
2022/12/10 10:30:24;;;;;;;73.78;33.80;;;2.00;99.90;;;;;;5093680;28;20043;-57
2022/12/10 10:32:54;;;;;;;;;;;2.00;99.90;;;;;;5093975;28;20107;-57
2022/12/10 10:35:34;;;;;;;77.03;34.40;;;2.00;99.90;;;;;;5083477;28;19970;-60
2022/12/10 10:38:04;;;;;;;77.63;36.88;;;2.00;99.90;;;;;;5083513;28;20028;-61
2022/12/10 10:40:39;;;;;;;72.70;34.63;;;2.00;99.90;;;;;;5073337;28;20024;-57
2022/12/10 10:43:05;;;;;;;81.35;37.83;;;2.00;99.90;;;;;;5080449;28;20086;-58
2022/12/10 10:45:38;;;;;;;80.90;34.65;;;2.00;99.90;;;;;;5083202;28;20479;-59
2022/12/10 10:48:10;;;;;;;76.28;36.17;;;2.00;99.90;;;;;;5082144;28;20021;-62
2022/12/10 10:50:39;;;;;;;74.32;36.45;;;2.00;99.90;;;;;;5078303;28;20024;-58
2022/12/10 10:53:30;;;;;;;74.63;36.65;;;2.10;99.90;;;;;;5081174;28;20027;-59
2022/12/10 10:56:06;;;;;;;72.93;35.33;;;2.00;99.90;;;;;;5078485;28;20024;-57
2022/12/10 10:58:33;;;;;;;78.82;36.95;;;2.10;99.90;;;;;;5077880;28;20103;-58
2022/12/10 11:01:05;;;;;;;209.38;109.13;;;2.00;99.90;;;;;;5055916;28;20059;-60
2022/12/10 11:03:34;;;;;;;78.40;37.63;;;2.10;99.90;;;;;;5080544;28;20067;-57
2022/12/10 11:06:00;;;;;;;74.65;37.22;;;2.10;99.90;;;;;;5081771;28;20051;-60
2022/12/10 11:08:30;;;;;;;80.10;36.20;;;2.10;99.90;;;;;;5063743;28;20086;-58
2022/12/10 11:11:05;;;;;;;68.15;35.17;;;2.10;99.90;;;;;;5077923;28;20052;-59
2022/12/10 11:13:35;;;;;;;72.38;35.65;;;2.10;99.90;;;;;;5055171;28;20056;-61
2022/12/10 11:16:11;;;;;;;73.88;34.85;;;2.00;99.90;;;;;;5058265;28;20500;-60
2022/12/10 11:18:41;;;;;;;73.90;34.97;;;2.00;99.90;;;;;;5055060;28;20037;-60
2022/12/10 11:21:21;;;;;;;76.55;34.67;;;1.90;99.90;;;;;;5051391;28;20388;-59
2022/12/10 11:23:52;;;;;;;73.05;36.47;;;2.00;99.90;;;;;;5033220;28;20095;-58
2022/12/10 11:26:23;;;;;;;83.03;38.22;;;2.00;99.90;;;;;;5031617;28;20022;-60
2022/12/10 11:29:22;;;;;;;77.85;36.65;;;2.00;99.90;;;;;;5051123;28;20029;-60
2022/12/10 11:31:50;;;;;;;78.93;37.17;;;2.10;99.90;;;;;;5037614;28;20036;-60
2022/12/10 11:34:43;;;;;;;80.03;38.85;;;2.00;99.90;;;;;;5033020;28;20025;-59
2022/12/10 11:37:32;;;;;;;83.22;39.72;;;2.00;99.90;;;;;;5044070;28;20384;-61
2022/12/10 11:40:10;;;;;;;76.32;37.67;;;2.00;99.90;;;;;;5038602;28;20037;-60
2022/12/10 11:42:54;;;;;;;;;;;2.00;99.90;;;;;;5049192;28;20025;-61
2022/12/10 11:45:32;;;;;;;79.40;37.63;;;2.10;99.90;;;;;;5049935;28;19975;-60
2022/12/10 11:48:07;;;;;;;85.45;40.42;;;2.10;99.90;;;;;;5049451;28;20473;-63
2022/12/10 11:50:50;;;;;;;85.05;37.67;;;2.10;99.90;;;;;;5048328;28;20033;-59
2022/12/10 11:53:38;;;;;;;82.32;36.45;;;2.00;99.90;;;;;;5048716;28;20096;-58
2022/12/10 11:56:23;;;;;;;74.82;34.95;;;2.00;99.90;;;;;;5031509;28;20112;-61
2022/12/10 11:58:57;;;;;;;82.30;38.17;;;2.10;99.90;;;;;;5050372;28;20032;-57
2022/12/10 12:01:44;;;;;;;71.90;34.17;;;2.00;99.90;;;;;;5050404;28;20029;-57
2022/12/10 12:04:33;;;;;;;72.07;33.40;;;2.00;99.90;;;;;;5047805;28;20036;-58
2022/12/10 12:07:44;;;;;;;70.45;33.97;;;1.90;99.90;;;;;;5030764;28;20061;-58
2022/12/10 12:10:37;;;;;;;70.60;34.53;;;1.90;99.90;;;;;;5047582;28;20044;-59
2022/12/10 12:13:21;;;;;;;76.50;35.20;;;2.00;99.90;;;;;;5065076;28;20036;-58
2022/12/10 12:15:49;;;;;;;79.20;38.08;;;2.00;99.90;;;;;;5070036;28;20031;-60
2022/12/10 12:18:18;;;;;;;77.65;37.00;;;1.90;99.90;;;;;;5069877;28;20024;-59
2022/12/10 12:20:53;;;;;;;75.47;37.85;;;1.90;99.90;;;;;;5069739;28;20028;-58
2022/12/10 12:23:44;;;;;;;83.05;38.05;;;2.00;99.90;;;;;;5069683;28;20033;-57
2022/12/10 12:26:14;;;;;;;85.15;38.25;;;1.90;99.90;;;;;;5056313;28;20032;-59
2022/12/10 12:29:09;;;;;;;84.80;37.92;;;1.90;99.90;;;;;;5069864;28;20033;-60
2022/12/10 12:31:39;;;;;;;83.22;38.78;;;1.90;99.90;;;;;;5073221;28;20653;-61
2022/12/10 12:34:17;;;;;;;127.95;57.60;;;1.90;99.90;;;;;;5091228;28;20051;-56
2022/12/10 12:36:44;;;;;;;96.78;41.25;;;2.00;99.90;;;;;;5091050;28;20490;-63
2022/12/10 12:39:38;;;;;;;90.88;39.60;;;2.00;99.90;;;;;;5070590;28;20032;-58
2022/12/10 12:42:10;;;;;;;89.75;38.97;;;2.00;99.90;;;;;;5061112;28;20024;-58
2022/12/10 12:45:10;;;;;;;84.53;36.55;;;2.00;99.90;;;;;;5069299;28;20036;-56
2022/12/10 12:47:53;;;;;;;86.30;38.90;;;1.90;99.90;;;;;;5067867;28;20048;-60
2022/12/10 12:50:40;;;;;;;90.40;37.78;;;1.90;99.90;;;;;;5068726;28;20506;-60
2022/12/10 12:53:16;;;;;;;107.05;47.38;;;2.00;99.90;;;;;;5067119;28;20020;-62
2022/12/10 12:56:09;;;;;;;101.50;45.10;;;2.00;99.90;;;;;;5069025;28;20043;-62
2022/12/10 12:58:46;;;;;;;97.07;44.95;;;1.90;99.90;;;;;;5068350;28;20082;-57
2022/12/10 13:01:18;;;;;;;101.60;43.22;;;1.90;99.90;;;;;;5069416;28;20054;-57
2022/12/10 13:03:45;;;;;;;92.07;41.95;;;1.90;99.90;;;;;;5069232;28;20036;-58
2022/12/10 13:06:22;;;;;;;;;;;1.90;99.90;;;;;;5070472;28;20024;-58